createdAt,value
2018-06-11T00:01:03.149Z,19.00
2018-06-11T00:03:31.241Z,18.67
2018-06-11T00:05:59.618Z,20.00
2018-06-11T00:08:27.789Z,19.03
2018-06-11T00:10:55.969Z,17.17
2018-06-11T00:13:24.077Z,19.13
2018-06-11T00:15:52.282Z,20.03
2018-06-11T00:18:20.423Z,18.30
2018-06-11T00:20:48.550Z,19.70
2018-06-11T00:23:16.779Z,22.43
2018-06-11T00:25:44.958Z,20.50
2018-06-11T00:28:13.114Z,22.07
2018-06-11T00:30:41.266Z,20.80
2018-06-11T00:33:09.418Z,21.27
2018-06-11T00:35:37.650Z,21.07
2018-06-11T00:38:05.863Z,20.00
2018-06-11T00:40:34.343Z,20.30
2018-06-11T00:43:02.682Z,19.90
2018-06-11T00:45:30.784Z,19.07
2018-06-11T00:47:58.928Z,21.37
2018-06-11T00:50:27.033Z,21.60
2018-06-11T00:52:55.141Z,21.20
2018-06-11T00:55:24.294Z,21.50
2018-06-11T00:57:52.774Z,20.03
2018-06-11T01:00:20.914Z,21.90
2018-06-11T01:02:49.049Z,22.60
2018-06-11T01:05:17.198Z,21.70
2018-06-11T01:07:45.378Z,21.57
2018-06-11T01:10:13.611Z,21.80
2018-06-11T01:12:41.902Z,22.30
2018-06-11T01:15:10.039Z,21.47
2018-06-11T01:17:38.157Z,22.77
2018-06-11T01:20:06.436Z,21.60
2018-06-11T01:22:34.577Z,22.37
2018-06-11T01:25:02.704Z,22.07
2018-06-11T01:27:30.821Z,23.00
2018-06-11T01:29:58.931Z,24.93
2018-06-11T01:32:27.096Z,23.03
2018-06-11T01:34:55.281Z,22.77
2018-06-11T01:37:23.450Z,24.30
2018-06-11T01:39:51.558Z,22.53
2018-06-11T01:42:19.663Z,22.83
2018-06-11T01:44:47.785Z,24.23
2018-06-11T01:47:15.926Z,23.00
2018-06-11T01:49:44.179Z,23.50
2018-06-11T01:52:12.297Z,24.40
2018-06-11T01:54:40.563Z,24.10
2018-06-11T01:57:09.029Z,24.00
2018-06-11T01:59:37.146Z,22.43
2018-06-11T02:02:05.342Z,23.57
2018-06-11T02:04:33.498Z,22.63
2018-06-11T02:07:01.734Z,24.37
2018-06-11T02:09:29.992Z,22.80
2018-06-11T02:11:58.183Z,23.00
2018-06-11T02:14:26.420Z,23.27
2018-06-11T02:16:54.538Z,22.17
2018-06-11T02:19:22.686Z,23.20
2018-06-11T02:21:50.895Z,21.37
2018-06-11T02:24:18.974Z,22.67
2018-06-11T02:26:47.197Z,23.67
2018-06-11T02:29:15.423Z,21.83
2018-06-11T02:31:43.630Z,21.43
2018-06-11T02:34:12.485Z,22.30
2018-06-11T02:36:40.669Z,21.17
2018-06-11T02:39:09.651Z,22.53
2018-06-11T02:41:37.747Z,20.80
2018-06-11T02:44:05.867Z,22.10
2018-06-11T02:46:33.965Z,22.43
2018-06-11T02:49:02.202Z,22.37
2018-06-11T02:51:30.407Z,23.50
2018-06-11T02:53:58.783Z,21.73
2018-06-11T02:56:26.994Z,20.90
2018-06-11T02:58:55.294Z,22.80
2018-06-11T03:01:23.630Z,22.80
2018-06-11T03:03:51.786Z,22.77
2018-06-11T03:06:19.959Z,25.03
2018-06-11T03:08:48.130Z,23.70
2018-06-11T03:11:16.409Z,22.37
2018-06-11T03:13:44.657Z,22.30
2018-06-11T03:16:13.059Z,22.67
2018-06-11T03:18:41.300Z,21.63
2018-06-11T03:21:09.673Z,22.17
2018-06-11T03:23:37.788Z,21.67
2018-06-11T03:26:06.014Z,20.80
2018-06-11T03:28:34.289Z,20.77
2018-06-11T03:31:02.357Z,23.03
2018-06-11T03:33:30.559Z,21.30
2018-06-11T03:35:59.070Z,21.43
2018-06-11T03:38:27.241Z,20.50
2018-06-11T03:40:55.460Z,22.50
2018-06-11T03:43:23.633Z,20.10
2018-06-11T03:45:51.749Z,19.87
2018-06-11T03:48:19.837Z,19.97
2018-06-11T03:50:48.047Z,19.10
2018-06-11T03:53:16.569Z,19.57
2018-06-11T03:55:44.721Z,18.47
2018-06-11T03:58:18.191Z,18.93
2018-06-11T04:00:46.447Z,20.10
2018-06-11T04:03:14.658Z,17.40
2018-06-11T04:05:42.887Z,17.03
2018-06-11T04:08:11.138Z,18.40
2018-06-11T04:10:39.592Z,18.77
2018-06-11T04:13:08.421Z,20.23
2018-06-11T04:15:37.146Z,19.07
2018-06-11T04:18:05.674Z,17.80
2018-06-11T04:20:33.915Z,18.83
2018-06-11T04:23:02.138Z,19.53
2018-06-11T04:25:30.419Z,19.80
2018-06-11T04:27:58.572Z,18.00
2018-06-11T04:30:26.768Z,18.80
2018-06-11T04:32:55.046Z,19.77
2018-06-11T04:35:23.536Z,19.57
2018-06-11T04:37:51.882Z,17.07
2018-06-11T04:40:20.666Z,12.90
2018-06-11T04:42:49.585Z,11.37
2018-06-11T04:45:17.935Z,12.03
2018-06-11T04:47:46.122Z,12.60
2018-06-11T04:50:15.072Z,11.33
2018-06-11T04:52:43.364Z,10.30
2018-06-11T04:55:11.647Z,10.40
2018-06-11T04:57:39.781Z,9.80
2018-06-11T05:00:07.980Z,11.00
2018-06-11T05:02:36.263Z,11.03
2018-06-11T05:05:04.431Z,11.30
2018-06-11T05:07:32.604Z,11.07
2018-06-11T05:10:01.000Z,10.53
2018-06-11T05:12:29.670Z,10.93
2018-06-11T05:14:57.842Z,11.67
2018-06-11T05:17:26.282Z,12.07
2018-06-11T05:19:54.430Z,12.60
2018-06-11T05:22:22.568Z,13.20
2018-06-11T05:24:51.447Z,13.00
2018-06-11T05:27:19.589Z,15.10
2018-06-11T05:29:48.854Z,15.87
2018-06-11T05:32:17.074Z,14.50
2018-06-11T05:34:45.277Z,13.67
2018-06-11T05:37:13.485Z,12.30
2018-06-11T05:39:41.630Z,12.70
2018-06-11T05:42:09.842Z,13.13
2018-06-11T05:44:38.283Z,12.30
2018-06-11T05:47:06.417Z,8.53
2018-06-11T05:49:34.616Z,9.77
2018-06-11T05:52:02.877Z,8.80
2018-06-11T05:54:31.049Z,8.87
2018-06-11T05:56:59.165Z,10.23
2018-06-11T05:59:27.846Z,11.03
2018-06-11T06:01:56.023Z,11.70
2018-06-11T06:04:24.387Z,10.57
2018-06-11T06:06:52.876Z,9.50
2018-06-11T06:09:21.088Z,9.40
2018-06-11T06:11:55.920Z,8.87
2018-06-11T06:14:24.861Z,8.70
2018-06-11T06:16:54.660Z,8.40
2018-06-11T06:19:23.263Z,8.83
2018-06-11T06:21:52.488Z,8.47
2018-06-11T06:24:21.038Z,8.20
2018-06-11T06:26:49.575Z,8.33
2018-06-11T06:29:18.083Z,8.00
2018-06-11T06:31:46.323Z,8.97
2018-06-11T06:34:14.966Z,8.93
2018-06-11T06:36:43.630Z,7.97
2018-06-11T06:39:12.713Z,7.20
2018-06-11T06:41:40.834Z,7.47
2018-06-11T06:44:09.118Z,8.07
2018-06-11T06:46:37.545Z,6.90
2018-06-11T06:49:05.693Z,8.30
2018-06-11T06:51:34.063Z,6.53
2018-06-11T06:54:02.390Z,8.00
2018-06-11T06:56:30.624Z,7.00
2018-06-11T06:58:58.926Z,7.93
2018-06-11T07:01:27.164Z,7.70
2018-06-11T07:03:55.329Z,8.57
2018-06-11T07:06:23.676Z,9.80
2018-06-11T07:08:51.948Z,9.77
2018-06-11T07:11:20.159Z,10.07
2018-06-11T07:13:48.255Z,8.23
2018-06-11T07:16:16.473Z,8.60
2018-06-11T07:18:44.694Z,8.40
2018-06-11T07:21:12.812Z,9.00
2018-06-11T07:23:40.989Z,9.50
2018-06-11T07:26:09.222Z,9.40
2018-06-11T07:28:37.535Z,9.57
2018-06-11T07:31:05.839Z,10.40
2018-06-11T07:33:34.045Z,11.40
2018-06-11T07:36:02.252Z,11.67
2018-06-11T07:38:30.482Z,10.40
2018-06-11T07:40:58.714Z,10.20
2018-06-11T07:43:26.838Z,12.10
2018-06-11T07:45:55.212Z,12.10
2018-06-11T07:48:23.353Z,12.37
2018-06-11T07:50:51.612Z,12.27
2018-06-11T07:53:19.657Z,14.53
2018-06-11T07:55:47.896Z,13.40
2018-06-11T07:58:15.986Z,15.23
2018-06-11T08:00:44.118Z,15.10
2018-06-11T08:03:12.459Z,16.30
2018-06-11T08:05:41.067Z,16.00
2018-06-11T08:08:09.411Z,17.13
2018-06-11T08:10:37.977Z,15.63
2018-06-11T08:13:06.165Z,16.60
2018-06-11T08:15:34.454Z,14.70
2018-06-11T08:18:02.707Z,14.77
2018-06-11T08:20:31.027Z,15.60
2018-06-11T08:22:59.241Z,15.63
2018-06-11T08:25:27.388Z,15.50
2018-06-11T08:27:55.617Z,16.10
2018-06-11T08:30:23.787Z,16.20
2018-06-11T08:32:51.917Z,15.00
2018-06-11T08:35:19.983Z,13.53
2018-06-11T08:37:48.218Z,14.30
2018-06-11T08:40:16.438Z,15.20
2018-06-11T08:42:44.626Z,15.80
2018-06-11T08:45:12.834Z,14.77
2018-06-11T08:47:41.558Z,15.27
2018-06-11T08:50:11.337Z,14.30
2018-06-11T08:52:39.961Z,15.77
2018-06-11T08:55:08.294Z,14.80
2018-06-11T08:57:36.517Z,15.30
2018-06-11T09:00:06.353Z,14.67
2018-06-11T09:02:34.647Z,15.60
2018-06-11T09:05:02.909Z,14.60
2018-06-11T09:07:31.066Z,13.23
2018-06-11T09:09:59.229Z,13.23
2018-06-11T09:12:27.395Z,12.37
2018-06-11T09:14:55.669Z,13.20
2018-06-11T09:17:23.835Z,14.20
2018-06-11T09:19:52.030Z,14.00
2018-06-11T09:22:20.282Z,15.10
2018-06-11T09:24:48.358Z,15.87
2018-06-11T09:27:16.449Z,16.30
2018-06-11T09:29:44.812Z,13.10
2018-06-11T09:32:13.050Z,14.37
2018-06-11T09:34:41.282Z,13.73
2018-06-11T09:37:09.439Z,14.53
2018-06-11T09:39:37.834Z,15.87
2018-06-11T09:42:06.013Z,15.93
2018-06-11T09:44:34.239Z,15.10
2018-06-11T09:47:02.446Z,13.90
2018-06-11T09:49:30.630Z,12.53
2018-06-11T09:51:58.765Z,15.07
2018-06-11T09:54:26.982Z,14.10
2018-06-11T09:56:55.114Z,14.07
2018-06-11T09:59:23.313Z,16.43
2018-06-11T10:01:51.595Z,13.97
2018-06-11T10:04:19.927Z,14.10
2018-06-11T10:06:48.761Z,16.43
2018-06-11T10:09:17.107Z,14.83
2018-06-11T10:11:45.262Z,16.40
2018-06-11T10:14:13.441Z,13.60
2018-06-11T10:16:41.639Z,14.90
2018-06-11T10:19:09.882Z,13.60
2018-06-11T10:21:37.991Z,13.30
2018-06-11T10:24:06.486Z,15.70
2018-06-11T10:26:34.723Z,17.30
2018-06-11T10:29:03.068Z,17.83
2018-06-11T10:31:31.216Z,16.27
2018-06-11T10:33:59.409Z,16.53
2018-06-11T10:36:27.561Z,15.80
2018-06-11T10:38:55.812Z,13.80
2018-06-11T10:41:24.006Z,15.17
2018-06-11T10:43:52.473Z,15.23
2018-06-11T10:46:20.661Z,15.50
2018-06-11T10:48:48.746Z,16.37
2018-06-11T10:51:16.975Z,16.93
2018-06-11T10:53:45.148Z,14.53
2018-06-11T10:56:13.320Z,16.63
2018-06-11T10:58:41.620Z,15.43
2018-06-11T11:01:09.797Z,16.03
2018-06-11T11:03:37.877Z,16.33
2018-06-11T11:06:06.093Z,31.20
2018-06-11T11:08:34.263Z,16.33
2018-06-11T11:11:02.441Z,16.63
2018-06-11T11:13:30.612Z,16.50
2018-06-11T11:15:58.822Z,16.90
2018-06-11T11:18:27.014Z,17.20
2018-06-11T11:20:55.681Z,14.50
2018-06-11T11:23:23.993Z,15.93
2018-06-11T11:25:52.275Z,16.33
2018-06-11T11:28:20.471Z,13.77
2018-06-11T11:30:48.725Z,14.43
2018-06-11T11:33:16.922Z,19.13
2018-06-11T11:35:45.124Z,16.70
2018-06-11T11:38:13.354Z,15.40
2018-06-11T11:40:41.545Z,16.00
2018-06-11T11:43:09.741Z,13.80
2018-06-11T11:45:37.922Z,16.77
2018-06-11T11:48:06.092Z,13.53
2018-06-11T11:50:34.337Z,14.80
2018-06-11T11:53:02.579Z,15.10
2018-06-11T11:55:30.882Z,13.40
2018-06-11T11:57:59.412Z,15.30
2018-06-11T12:00:27.615Z,13.63
2018-06-11T12:02:55.829Z,17.80
2018-06-11T12:05:24.082Z,13.77
2018-06-11T12:07:52.418Z,13.27
2018-06-11T12:10:20.613Z,12.63
2018-06-11T12:12:48.805Z,12.47
2018-06-11T12:15:17.206Z,12.50
2018-06-11T12:17:45.438Z,12.53
2018-06-11T12:20:13.603Z,13.07
2018-06-11T12:22:41.755Z,17.40
2018-06-11T12:25:10.069Z,13.83
2018-06-11T12:27:38.317Z,13.73
2018-06-11T12:30:06.526Z,12.90
2018-06-11T12:32:34.729Z,11.23
2018-06-11T12:35:03.355Z,13.30
2018-06-11T12:37:33.385Z,12.77
2018-06-11T12:40:02.361Z,12.37
2018-06-11T12:42:30.642Z,12.13
2018-06-11T12:44:59.001Z,11.90
2018-06-11T12:47:27.242Z,12.70
2018-06-11T12:49:55.438Z,12.40
2018-06-11T12:52:23.687Z,12.50
2018-06-11T12:54:51.969Z,12.20
2018-06-11T12:57:20.747Z,12.03
2018-06-11T12:59:48.946Z,10.63
2018-06-11T13:02:17.102Z,11.50
2018-06-11T13:04:45.331Z,18.83
2018-06-11T13:07:13.562Z,11.80
2018-06-11T13:09:41.792Z,10.73
2018-06-11T13:12:09.848Z,12.00
2018-06-11T13:14:38.030Z,12.17
2018-06-11T13:17:07.195Z,13.70
2018-06-11T13:19:35.402Z,13.07
2018-06-11T13:22:04.105Z,11.93
2018-06-11T13:24:32.415Z,12.50
2018-06-11T13:27:00.546Z,13.40
2018-06-11T13:29:28.719Z,12.33
2018-06-11T13:31:57.095Z,11.83
2018-06-11T13:34:25.318Z,11.97
2018-06-11T13:36:53.389Z,12.90
2018-06-11T13:39:21.642Z,14.47
2018-06-11T13:41:49.751Z,13.30
2018-06-11T13:44:17.921Z,11.97
2018-06-11T13:46:46.413Z,14.20
2018-06-11T13:49:14.870Z,14.17
2018-06-11T13:51:43.079Z,14.80
2018-06-11T13:54:11.669Z,14.10
2018-06-11T13:56:40.103Z,13.70
2018-06-11T13:59:08.865Z,13.80
2018-06-11T14:01:37.088Z,14.83
2018-06-11T14:04:05.555Z,14.57
2018-06-11T14:06:33.870Z,15.30
2018-06-11T14:09:02.382Z,16.00
2018-06-11T14:11:30.626Z,17.43
2018-06-11T14:13:58.865Z,14.93
2018-06-11T14:16:27.410Z,12.50
2018-06-11T14:18:55.686Z,12.77
2018-06-11T14:21:24.063Z,12.53
2018-06-11T14:23:52.291Z,12.97
2018-06-11T14:26:20.508Z,12.47
2018-06-11T14:28:48.787Z,12.80
2018-06-11T14:31:17.246Z,12.47
2018-06-11T14:33:45.544Z,11.50
2018-06-11T14:36:13.981Z,10.00
2018-06-11T14:38:42.440Z,9.93
2018-06-11T14:41:11.263Z,9.87
2018-06-11T14:43:39.634Z,8.93
2018-06-11T14:46:08.359Z,8.60
2018-06-11T14:48:36.727Z,8.43
2018-06-11T14:51:04.959Z,8.00
2018-06-11T14:53:33.329Z,6.70
2018-06-11T14:56:01.753Z,8.37
2018-06-11T14:58:30.106Z,6.73
2018-06-11T15:00:58.482Z,7.73
2018-06-11T15:03:26.703Z,7.90
2018-06-11T15:05:55.093Z,7.90
2018-06-11T15:08:23.429Z,7.10
2018-06-11T15:10:51.896Z,8.27
2018-06-11T15:13:20.214Z,8.23
2018-06-11T15:15:48.504Z,10.10
2018-06-11T15:18:16.842Z,11.40
2018-06-11T15:20:45.082Z,7.30
2018-06-11T15:23:13.308Z,6.50
2018-06-11T15:25:41.594Z,5.90
2018-06-11T15:28:09.769Z,6.00
2018-06-11T15:30:38.066Z,4.57
2018-06-11T15:33:06.326Z,4.40
2018-06-11T15:35:34.756Z,5.33
2018-06-11T15:38:03.034Z,6.60
2018-06-11T15:40:31.316Z,5.90
2018-06-11T15:42:59.565Z,5.70
2018-06-11T15:45:27.867Z,4.57
2018-06-11T15:47:56.115Z,5.77
2018-06-11T15:50:24.277Z,5.30
2018-06-11T15:52:52.416Z,4.93
2018-06-11T15:55:27.505Z,5.33
2018-06-11T15:57:55.743Z,6.23
2018-06-11T16:00:24.050Z,6.03
2018-06-11T16:02:52.155Z,6.00
2018-06-11T16:05:20.881Z,3.87
2018-06-11T16:07:49.114Z,5.77
2018-06-11T16:10:17.309Z,6.40
2018-06-11T16:12:45.567Z,6.37
2018-06-11T16:15:13.732Z,6.07
2018-06-11T16:17:42.090Z,6.40
2018-06-11T16:20:10.414Z,6.67
2018-06-11T16:22:38.619Z,6.00
2018-06-11T16:25:06.827Z,7.77
2018-06-11T16:27:35.119Z,9.03
2018-06-11T16:30:03.447Z,8.00
2018-06-11T16:32:31.852Z,8.23
2018-06-11T16:35:00.260Z,8.47
2018-06-11T16:37:28.684Z,7.80
2018-06-11T16:39:57.010Z,7.63
2018-06-11T16:42:25.368Z,6.67
2018-06-11T16:44:53.642Z,7.37
2018-06-11T16:47:21.890Z,6.63
2018-06-11T16:49:50.238Z,7.70
2018-06-11T16:52:18.599Z,6.80
2018-06-11T16:54:47.118Z,6.70
2018-06-11T16:57:15.383Z,6.33
2018-06-11T16:59:43.683Z,5.63
2018-06-11T17:02:12.031Z,8.83
2018-06-11T17:04:40.721Z,9.90
2018-06-11T17:07:08.958Z,9.67
2018-06-11T17:09:37.526Z,11.33
2018-06-11T17:12:05.958Z,9.67
2018-06-11T17:14:34.387Z,9.20
2018-06-11T17:17:02.941Z,11.40
2018-06-11T17:19:31.233Z,13.17
2018-06-11T17:21:59.843Z,12.10
2018-06-11T17:24:28.203Z,13.60
2018-06-11T17:26:56.809Z,14.70
2018-06-11T17:29:25.172Z,16.73
2018-06-11T17:31:56.564Z,18.80
2018-06-11T17:34:25.381Z,19.03
2018-06-11T17:36:53.898Z,18.70
2018-06-11T17:39:22.261Z,20.20
2018-06-11T17:41:51.614Z,17.30
2018-06-11T17:44:19.737Z,17.07
2018-06-11T17:46:48.343Z,16.00
2018-06-11T17:49:16.726Z,15.97
2018-06-11T17:51:45.164Z,16.20
2018-06-11T17:54:13.485Z,16.03
2018-06-11T17:56:41.881Z,15.47
2018-06-11T17:59:10.078Z,17.90
2018-06-11T18:01:38.747Z,19.63
2018-06-11T18:04:07.235Z,19.37
2018-06-11T18:06:36.153Z,20.70
2018-06-11T18:09:07.822Z,19.00
2018-06-11T18:11:36.904Z,19.00
2018-06-11T18:14:05.914Z,19.30
2018-06-11T18:16:35.624Z,18.87
2018-06-11T18:19:03.944Z,19.60
2018-06-11T18:21:32.259Z,19.40
2018-06-11T18:24:00.661Z,20.30
2018-06-11T18:26:28.938Z,16.40
2018-06-11T18:28:57.282Z,16.27
2018-06-11T18:31:25.728Z,15.73
2018-06-11T18:33:53.964Z,16.77
2018-06-11T18:36:22.408Z,15.90
2018-06-11T18:38:50.717Z,16.10
2018-06-11T18:41:19.181Z,17.50
2018-06-11T18:43:47.648Z,19.17
2018-06-11T18:46:16.172Z,22.17
2018-06-11T18:48:44.560Z,21.97
2018-06-11T18:51:12.900Z,21.97
2018-06-11T18:53:41.229Z,22.83
2018-06-11T18:56:09.538Z,22.77
2018-06-11T18:58:38.089Z,23.23
2018-06-11T19:01:06.345Z,23.60
2018-06-11T19:03:35.085Z,26.27
2018-06-11T19:06:03.560Z,29.00
2018-06-11T19:08:32.676Z,28.80
2018-06-11T19:11:01.081Z,29.57
2018-06-11T19:13:29.432Z,28.70
2018-06-11T19:15:57.801Z,27.70
2018-06-11T19:18:26.155Z,30.67
2018-06-11T19:20:54.612Z,30.50
2018-06-11T19:23:22.920Z,30.40
2018-06-11T19:25:51.310Z,29.43
2018-06-11T19:28:19.769Z,30.40
2018-06-11T19:30:48.250Z,31.33
2018-06-11T19:33:16.679Z,29.97
2018-06-11T19:35:45.511Z,30.17
2018-06-11T19:38:13.797Z,29.13
2018-06-11T19:40:42.104Z,28.27
2018-06-11T19:43:10.434Z,29.17
2018-06-11T19:45:38.757Z,29.03
2018-06-11T19:48:06.991Z,28.70
2018-06-11T19:50:35.217Z,26.13
2018-06-11T19:53:03.607Z,28.90
2018-06-11T19:55:31.931Z,28.93
2018-06-11T19:58:00.146Z,24.53
2018-06-11T20:00:28.473Z,26.27
2018-06-11T20:02:56.663Z,23.23
2018-06-11T20:05:24.883Z,24.73
2018-06-11T20:07:53.091Z,24.40
2018-06-11T20:10:21.340Z,24.97
2018-06-11T20:12:49.594Z,26.50
2018-06-11T20:15:17.780Z,24.93
2018-06-11T20:17:46.069Z,25.50
2018-06-11T20:20:14.627Z,25.37
2018-06-11T20:22:43.282Z,27.10
2018-06-11T20:25:11.508Z,24.80
2018-06-11T20:27:39.728Z,24.07
2018-06-11T20:30:07.975Z,26.23
2018-06-11T20:32:36.175Z,28.03
2018-06-11T20:35:04.456Z,29.23
2018-06-11T20:37:32.815Z,26.10
2018-06-11T20:40:01.164Z,26.77
2018-06-11T20:42:29.561Z,26.57
2018-06-11T20:44:57.814Z,26.87
2018-06-11T20:47:26.210Z,28.73
2018-06-11T20:49:54.545Z,28.27
2018-06-11T20:52:22.930Z,31.73
2018-06-11T20:54:51.277Z,34.63
2018-06-11T20:57:19.497Z,39.80
2018-06-11T20:59:47.715Z,41.80
2018-06-11T21:02:15.970Z,45.90
2018-06-11T21:04:44.629Z,41.93
2018-06-11T21:07:12.986Z,43.37
2018-06-11T21:09:41.307Z,45.37
2018-06-11T21:12:09.441Z,46.50
2018-06-11T21:14:37.516Z,46.60
2018-06-11T21:17:05.938Z,47.90
2018-06-11T21:19:34.218Z,43.33
2018-06-11T21:22:02.422Z,43.50
2018-06-11T21:24:30.698Z,43.80
2018-06-11T21:26:59.134Z,45.13
2018-06-11T21:29:27.393Z,45.30
2018-06-11T21:31:55.714Z,46.77
2018-06-11T21:34:23.968Z,46.37
2018-06-11T21:36:52.085Z,48.60
2018-06-11T21:39:20.382Z,46.63
2018-06-11T21:41:49.147Z,47.40
2018-06-11T21:44:17.326Z,48.60
2018-06-11T21:46:45.579Z,52.63
2018-06-11T21:49:13.922Z,52.30
2018-06-11T21:51:42.305Z,53.00
2018-06-11T21:54:10.550Z,48.27
2018-06-11T21:56:38.925Z,47.97
2018-06-11T21:59:07.213Z,50.57
2018-06-11T22:01:35.354Z,49.33
2018-06-11T22:04:03.739Z,49.27
2018-06-11T22:06:31.778Z,48.23
2018-06-11T22:09:00.035Z,49.30
2018-06-11T22:11:28.171Z,50.10
2018-06-11T22:13:56.376Z,50.33
2018-06-11T22:16:24.494Z,46.97
2018-06-11T22:18:52.849Z,47.43
2018-06-11T22:21:20.976Z,50.07
2018-06-11T22:23:49.081Z,48.57
2018-06-11T22:26:17.477Z,48.20
2018-06-11T22:28:45.659Z,49.33
2018-06-11T22:31:13.910Z,48.80
2018-06-11T22:33:42.265Z,48.10
2018-06-11T22:36:10.615Z,45.83
2018-06-11T22:38:38.745Z,49.37
2018-06-11T22:41:07.093Z,48.50
2018-06-11T22:43:35.306Z,45.60
2018-06-11T22:46:03.495Z,46.27
2018-06-11T22:48:31.614Z,47.10
2018-06-11T22:50:59.797Z,48.07
2018-06-11T22:53:27.929Z,43.80
2018-06-11T22:55:56.106Z,43.37
2018-06-11T22:58:24.241Z,44.30
2018-06-11T23:00:52.366Z,41.30
2018-06-11T23:03:20.430Z,44.70
2018-06-11T23:05:53.593Z,43.10
2018-06-11T23:08:21.680Z,45.43
2018-06-11T23:10:49.838Z,43.30
2018-06-11T23:13:17.934Z,44.37
2018-06-11T23:15:46.050Z,45.70
2018-06-11T23:18:14.222Z,48.90
2018-06-11T23:20:42.417Z,44.50
2018-06-11T23:23:10.596Z,44.77
2018-06-11T23:25:45.684Z,45.53
2018-06-11T23:28:13.957Z,44.50
2018-06-11T23:30:42.161Z,45.77
2018-06-11T23:33:10.461Z,42.20
2018-06-11T23:35:38.739Z,44.97
2018-06-11T23:38:06.898Z,45.20
2018-06-11T23:40:35.102Z,44.93
2018-06-11T23:43:03.236Z,46.77
2018-06-11T23:45:31.341Z,48.50
2018-06-11T23:48:00.098Z,51.37
2018-06-11T23:50:28.229Z,52.60
2018-06-11T23:52:56.810Z,54.67
2018-06-11T23:55:25.024Z,51.30
2018-06-11T23:57:53.365Z,51.13
